sensor_id;sensor_type;location;lat;lon;timestamp;pressure;altitude;pressure_sealevel;temperature;humidity
83246;BME280;73140;46.754;17.714;2023-12-04T00:00:14;100553.03;;;-2.19;75.07
83246;BME280;73140;46.754;17.714;2023-12-04T00:02:42;100501.16;;;-2.65;75.66
83246;BME280;73140;46.754;17.714;2023-12-04T00:05:08;100556.50;;;-2.42;75.63
83246;BME280;73140;46.754;17.714;2023-12-04T00:07:34;100589.28;;;-2.30;75.90
83246;BME280;73140;46.754;17.714;2023-12-04T00:10:00;100594.44;;;-1.97;75.42
83246;BME280;73140;46.754;17.714;2023-12-04T00:12:26;100597.66;;;-2.00;74.62
83246;BME280;73140;46.754;17.714;2023-12-04T00:14:52;100597.25;;;-1.94;74.88
83246;BME280;73140;46.754;17.714;2023-12-04T00:17:18;100573.69;;;-2.09;74.80
83246;BME280;73140;46.754;17.714;2023-12-04T00:19:45;100603.56;;;-1.91;74.63
83246;BME280;73140;46.754;17.714;2023-12-04T00:22:11;100552.81;;;-2.10;74.50
83246;BME280;73140;46.754;17.714;2023-12-04T00:24:37;100539.66;;;-2.13;74.60
83246;BME280;73140;46.754;17.714;2023-12-04T00:27:04;100596.56;;;-1.80;74.79
83246;BME280;73140;46.754;17.714;2023-12-04T00:29:30;100550.72;;;-2.04;74.33
83246;BME280;73140;46.754;17.714;2023-12-04T00:31:56;100554.63;;;-2.09;75.33
83246;BME280;73140;46.754;17.714;2023-12-04T00:34:22;100563.66;;;-2.16;74.95
83246;BME280;73140;46.754;17.714;2023-12-04T00:36:50;100491.47;;;-2.68;74.60
83246;BME280;73140;46.754;17.714;2023-12-04T00:39:16;100606.28;;;-1.89;74.61
83246;BME280;73140;46.754;17.714;2023-12-04T00:41:42;100563.66;;;-2.04;74.58
83246;BME280;73140;46.754;17.714;2023-12-04T00:44:08;100575.81;;;-1.92;74.28
83246;BME280;73140;46.754;17.714;2023-12-04T00:46:34;100592.97;;;-1.82;74.48
83246;BME280;73140;46.754;17.714;2023-12-04T00:49:00;100590.94;;;-1.86;74.37
83246;BME280;73140;46.754;17.714;2023-12-04T00:51:26;100565.22;;;-2.06;74.32
83246;BME280;73140;46.754;17.714;2023-12-04T00:53:53;100499.84;;;-2.49;74.52
83246;BME280;73140;46.754;17.714;2023-12-04T00:56:19;100547.84;;;-2.30;75.21
83246;BME280;73140;46.754;17.714;2023-12-04T00:58:46;100604.88;;;-1.96;74.98
83246;BME280;73140;46.754;17.714;2023-12-04T01:01:12;100599.84;;;-1.94;75.25
83246;BME280;73140;46.754;17.714;2023-12-04T01:03:38;100605.78;;;-1.95;75.29
83246;BME280;73140;46.754;17.714;2023-12-04T01:06:04;100572.00;;;-2.08;75.29
83246;BME280;73140;46.754;17.714;2023-12-04T01:08:30;100568.81;;;-2.27;75.19
83246;BME280;73140;46.754;17.714;2023-12-04T01:10:57;100612.09;;;-2.03;75.73
83246;BME280;73140;46.754;17.714;2023-12-04T01:13:23;100557.75;;;-2.36;76.13
83246;BME280;73140;46.754;17.714;2023-12-04T01:15:49;100550.97;;;-2.34;76.64
83246;BME280;73140;46.754;17.714;2023-12-04T01:18:16;100630.78;;;-2.07;76.37
83246;BME280;73140;46.754;17.714;2023-12-04T01:20:42;100597.53;;;-2.24;75.95
83246;BME280;73140;46.754;17.714;2023-12-04T01:23:08;100632.56;;;-2.18;76.49
83246;BME280;73140;46.754;17.714;2023-12-04T01:25:34;100513.50;;;-2.73;76.90
83246;BME280;73140;46.754;17.714;2023-12-04T01:28:02;100505.84;;;-2.83;76.82
83246;BME280;73140;46.754;17.714;2023-12-04T01:30:28;100610.25;;;-2.27;77.59
83246;BME280;73140;46.754;17.714;2023-12-04T01:32:54;100587.66;;;-2.52;77.47
83246;BME280;73140;46.754;17.714;2023-12-04T01:35:20;100615.59;;;-2.48;77.93
83246;BME280;73140;46.754;17.714;2023-12-04T01:37:46;100617.38;;;-2.47;77.92
83246;BME280;73140;46.754;17.714;2023-12-04T01:40:12;100624.59;;;-2.43;77.28
83246;BME280;73140;46.754;17.714;2023-12-04T01:42:38;100551.88;;;-2.79;77.56
83246;BME280;73140;46.754;17.714;2023-12-04T01:45:06;100537.44;;;-2.87;77.98
83246;BME280;73140;46.754;17.714;2023-12-04T01:47:33;100615.81;;;-2.45;77.98
83246;BME280;73140;46.754;17.714;2023-12-04T01:49:59;100601.56;;;-2.61;77.83
83246;BME280;73140;46.754;17.714;2023-12-04T01:52:25;100612.81;;;-2.61;77.23
83246;BME280;73140;46.754;17.714;2023-12-04T01:54:51;100565.91;;;-2.87;77.75
83246;BME280;73140;46.754;17.714;2023-12-04T01:57:17;100573.81;;;-2.74;77.66
83246;BME280;73140;46.754;17.714;2023-12-04T01:59:45;100600.75;;;-2.72;78.12
83246;BME280;73140;46.754;17.714;2023-12-04T02:02:13;100607.78;;;-2.81;78.57
83246;BME280;73140;46.754;17.714;2023-12-04T02:04:39;100612.97;;;-2.81;78.96
83246;BME280;73140;46.754;17.714;2023-12-04T02:07:05;100588.41;;;-3.08;79.06
83246;BME280;73140;46.754;17.714;2023-12-04T02:09:31;100609.94;;;-2.97;79.65
83246;BME280;73140;46.754;17.714;2023-12-04T02:11:57;100615.72;;;-3.11;79.81
83246;BME280;73140;46.754;17.714;2023-12-04T02:14:24;100622.44;;;-3.13;80.19
83246;BME280;73140;46.754;17.714;2023-12-04T02:16:52;100583.50;;;-3.37;80.42
83246;BME280;73140;46.754;17.714;2023-12-04T02:19:19;100605.31;;;-3.33;80.72
83246;BME280;73140;46.754;17.714;2023-12-04T02:21:46;100559.34;;;-3.69;80.83
83246;BME280;73140;46.754;17.714;2023-12-04T02:24:14;100511.78;;;-4.03;81.40
83246;BME280;73140;46.754;17.714;2023-12-04T02:26:45;100606.34;;;-3.63;81.24
83246;BME280;73140;46.754;17.714;2023-12-04T02:29:17;100515.84;;;-4.26;82.39
83246;BME280;73140;46.754;17.714;2023-12-04T02:31:47;100620.31;;;-3.71;83.13
83246;BME280;73140;46.754;17.714;2023-12-04T02:34:16;100622.28;;;-3.78;82.37
83246;BME280;73140;46.754;17.714;2023-12-04T02:36:43;100558.69;;;-4.08;83.18
83246;BME280;73140;46.754;17.714;2023-12-04T02:39:11;100600.75;;;-3.89;83.26
83246;BME280;73140;46.754;17.714;2023-12-04T02:41:38;100552.38;;;-4.12;83.04
83246;BME280;73140;46.754;17.714;2023-12-04T02:44:04;100543.53;;;-4.04;82.75
83246;BME280;73140;46.754;17.714;2023-12-04T02:46:30;100575.41;;;-3.83;82.22
83246;BME280;73140;46.754;17.714;2023-12-04T02:48:56;100595.53;;;-3.69;82.17
83246;BME280;73140;46.754;17.714;2023-12-04T02:51:22;100603.53;;;-3.76;82.27
83246;BME280;73140;46.754;17.714;2023-12-04T02:53:51;100602.28;;;-3.81;83.17
83246;BME280;73140;46.754;17.714;2023-12-04T02:56:17;100570.28;;;-4.03;83.97
83246;BME280;73140;46.754;17.714;2023-12-04T02:58:45;100602.03;;;-3.94;84.47
83246;BME280;73140;46.754;17.714;2023-12-04T03:01:10;100582.66;;;-3.99;83.76
83246;BME280;73140;46.754;17.714;2023-12-04T03:03:37;100607.72;;;-3.88;83.27
83246;BME280;73140;46.754;17.714;2023-12-04T03:06:03;100604.47;;;-3.96;82.79
83246;BME280;73140;46.754;17.714;2023-12-04T03:08:29;100580.59;;;-3.93;83.19
83246;BME280;73140;46.754;17.714;2023-12-04T03:10:55;100589.38;;;-3.81;82.66
83246;BME280;73140;46.754;17.714;2023-12-04T03:13:21;100577.13;;;-3.94;82.02
83246;BME280;73140;46.754;17.714;2023-12-04T03:15:48;100586.53;;;-3.94;82.18
83246;BME280;73140;46.754;17.714;2023-12-04T03:18:14;100593.53;;;-3.93;82.69
83246;BME280;73140;46.754;17.714;2023-12-04T03:20:40;100597.16;;;-4.01;82.83
83246;BME280;73140;46.754;17.714;2023-12-04T03:23:06;100472.81;;;-4.68;82.48
83246;BME280;73140;46.754;17.714;2023-12-04T03:25:32;100530.03;;;-4.21;81.86
83246;BME280;73140;46.754;17.714;2023-12-04T03:27:58;100589.13;;;-3.94;81.95
83246;BME280;73140;46.754;17.714;2023-12-04T03:30:24;100601.28;;;-4.03;82.11
83246;BME280;73140;46.754;17.714;2023-12-04T03:32:52;100499.91;;;-4.73;81.91
83246;BME280;73140;46.754;17.714;2023-12-04T03:35:18;100569.53;;;-4.12;81.76
83246;BME280;73140;46.754;17.714;2023-12-04T03:37:43;100586.69;;;-4.03;82.48
83246;BME280;73140;46.754;17.714;2023-12-04T03:40:10;100544.53;;;-4.23;82.46
83246;BME280;73140;46.754;17.714;2023-12-04T03:42:36;100566.03;;;-4.23;83.28
83246;BME280;73140;46.754;17.714;2023-12-04T03:45:03;100556.75;;;-4.31;83.06
83246;BME280;73140;46.754;17.714;2023-12-04T03:47:29;100530.59;;;-4.46;82.58
83246;BME280;73140;46.754;17.714;2023-12-04T03:49:57;100564.91;;;-4.26;82.53
83246;BME280;73140;46.754;17.714;2023-12-04T03:52:22;100548.41;;;-4.28;83.68
83246;BME280;73140;46.754;17.714;2023-12-04T03:54:49;100481.72;;;-4.85;83.24
83246;BME280;73140;46.754;17.714;2023-12-04T03:57:14;100554.59;;;-4.47;83.03
83246;BME280;73140;46.754;17.714;2023-12-04T03:59:40;100567.25;;;-4.40;83.50
83246;BME280;73140;46.754;17.714;2023-12-04T04:02:06;100574.22;;;-4.49;83.73
83246;BME280;73140;46.754;17.714;2023-12-04T04:04:32;100531.38;;;-4.77;85.04
83246;BME280;73140;46.754;17.714;2023-12-04T04:07:01;100473.34;;;-5.22;84.26
83246;BME280;73140;46.754;17.714;2023-12-04T04:09:27;100540.94;;;-4.86;85.37
83246;BME280;73140;46.754;17.714;2023-12-04T04:11:53;100572.28;;;-4.61;85.38
83246;BME280;73140;46.754;17.714;2023-12-04T04:14:19;100547.09;;;-4.74;84.81
83246;BME280;73140;46.754;17.714;2023-12-04T04:16:45;100528.53;;;-4.80;84.65
83246;BME280;73140;46.754;17.714;2023-12-04T04:19:11;100503.50;;;-5.01;84.70
83246;BME280;73140;46.754;17.714;2023-12-04T04:21:39;100567.25;;;-4.40;84.57
83246;BME280;73140;46.754;17.714;2023-12-04T04:24:07;100561.00;;;-4.11;83.64
83246;BME280;73140;46.754;17.714;2023-12-04T04:26:33;100528.06;;;-3.72;80.84
83246;BME280;73140;46.754;17.714;2023-12-04T04:28:59;100532.44;;;-3.61;80.55
83246;BME280;73140;46.754;17.714;2023-12-04T04:31:25;100542.50;;;-3.54;80.42
83246;BME280;73140;46.754;17.714;2023-12-04T04:33:51;100561.06;;;-3.48;80.02
83246;BME280;73140;46.754;17.714;2023-12-04T04:36:17;100455.41;;;-3.87;79.25
83246;BME280;73140;46.754;17.714;2023-12-04T04:38:43;100467.84;;;-3.61;79.11
83246;BME280;73140;46.754;17.714;2023-12-04T04:41:14;100572.53;;;-3.12;78.98
83246;BME280;73140;46.754;17.714;2023-12-04T04:43:43;100495.91;;;-3.44;78.55
83246;BME280;73140;46.754;17.714;2023-12-04T04:46:09;100564.66;;;-3.14;79.09
83246;BME280;73140;46.754;17.714;2023-12-04T04:48:35;100541.13;;;-3.17;78.99
83246;BME280;73140;46.754;17.714;2023-12-04T04:51:01;100494.06;;;-3.01;78.00
83246;BME280;73140;46.754;17.714;2023-12-04T04:53:27;100514.97;;;-2.76;77.89
83246;BME280;73140;46.754;17.714;2023-12-04T04:55:54;100541.72;;;-2.43;76.57
83246;BME280;73140;46.754;17.714;2023-12-04T04:58:21;100538.59;;;-2.39;76.62
83246;BME280;73140;46.754;17.714;2023-12-04T05:00:47;100506.66;;;-2.27;75.99
83246;BME280;73140;46.754;17.714;2023-12-04T05:03:13;100508.91;;;-2.09;75.61
83246;BME280;73140;46.754;17.714;2023-12-04T05:05:39;100535.03;;;-1.94;75.38
83246;BME280;73140;46.754;17.714;2023-12-04T05:08:05;100493.03;;;-2.13;75.43
83246;BME280;73140;46.754;17.714;2023-12-04T05:10:31;100501.91;;;-2.21;75.51
83246;BME280;73140;46.754;17.714;2023-12-04T05:12:57;100537.97;;;-2.01;75.77
83246;BME280;73140;46.754;17.714;2023-12-04T05:15:25;100526.00;;;-1.99;75.36
83246;BME280;73140;46.754;17.714;2023-12-04T05:17:51;100435.69;;;-2.29;74.16
83246;BME280;73140;46.754;17.714;2023-12-04T05:20:17;100473.75;;;-1.94;73.15
83246;BME280;73140;46.754;17.714;2023-12-04T05:22:43;100484.47;;;-1.89;73.31
83246;BME280;73140;46.754;17.714;2023-12-04T05:25:09;100537.97;;;-1.78;73.58
83246;BME280;73140;46.754;17.714;2023-12-04T05:27:35;100468.34;;;-2.08;73.43
83246;BME280;73140;46.754;17.714;2023-12-04T05:30:01;100451.44;;;-2.26;73.63
83246;BME280;73140;46.754;17.714;2023-12-04T05:32:29;100456.16;;;-3.01;74.97
83246;BME280;73140;46.754;17.714;2023-12-04T05:34:55;100482.78;;;-3.13;76.53
83246;BME280;73140;46.754;17.714;2023-12-04T05:37:21;100482.53;;;-3.60;78.10
83246;BME280;73140;46.754;17.714;2023-12-04T05:39:47;100523.25;;;-3.57;78.77
83246;BME280;73140;46.754;17.714;2023-12-04T05:42:13;100515.91;;;-3.63;79.29
83246;BME280;73140;46.754;17.714;2023-12-04T05:44:39;100546.63;;;-3.56;80.11
83246;BME280;73140;46.754;17.714;2023-12-04T05:47:05;100522.66;;;-3.75;79.65
83246;BME280;73140;46.754;17.714;2023-12-04T05:49:32;100513.63;;;-3.80;80.35
83246;BME280;73140;46.754;17.714;2023-12-04T05:51:58;100560.22;;;-3.68;80.80
83246;BME280;73140;46.754;17.714;2023-12-04T05:54:24;100559.78;;;-3.85;80.96
83246;BME280;73140;46.754;17.714;2023-12-04T05:56:50;100539.56;;;-4.00;80.97
83246;BME280;73140;46.754;17.714;2023-12-04T05:59:16;100527.19;;;-4.14;81.60
83246;BME280;73140;46.754;17.714;2023-12-04T06:01:42;100559.19;;;-4.02;81.60
83246;BME280;73140;46.754;17.714;2023-12-04T06:04:08;100525.16;;;-4.28;82.03
83246;BME280;73140;46.754;17.714;2023-12-04T06:06:36;100548.28;;;-4.40;82.59
83246;BME280;73140;46.754;17.714;2023-12-04T06:09:02;100491.66;;;-4.79;83.27
83246;BME280;73140;46.754;17.714;2023-12-04T06:11:28;100568.66;;;-4.33;83.48
83246;BME280;73140;46.754;17.714;2023-12-04T06:13:54;100542.97;;;-4.42;83.50
83246;BME280;73140;46.754;17.714;2023-12-04T06:16:20;100568.78;;;-4.21;83.54
83246;BME280;73140;46.754;17.714;2023-12-04T06:18:46;100560.22;;;-4.00;83.65
83246;BME280;73140;46.754;17.714;2023-12-04T06:21:12;100555.13;;;-3.47;82.00
83246;BME280;73140;46.754;17.714;2023-12-04T06:23:40;100546.00;;;-3.10;80.37
83246;BME280;73140;46.754;17.714;2023-12-04T06:26:07;100572.16;;;-2.95;79.71
83246;BME280;73140;46.754;17.714;2023-12-04T06:28:34;100539.88;;;-3.22;79.97
83246;BME280;73140;46.754;17.714;2023-12-04T06:31:01;100577.50;;;-2.82;80.55
83246;BME280;73140;46.754;17.714;2023-12-04T06:33:27;100448.50;;;-3.33;79.67
83246;BME280;73140;46.754;17.714;2023-12-04T06:35:54;100539.41;;;-2.73;79.18
83246;BME280;73140;46.754;17.714;2023-12-04T06:38:24;100573.13;;;-2.50;79.46
83246;BME280;73140;46.754;17.714;2023-12-04T06:40:52;100576.66;;;-2.38;77.42
83246;BME280;73140;46.754;17.714;2023-12-04T06:43:19;100594.38;;;-2.54;77.45
83246;BME280;73140;46.754;17.714;2023-12-04T06:45:45;100549.91;;;-2.93;79.09
83246;BME280;73140;46.754;17.714;2023-12-04T06:48:13;100568.53;;;-2.97;78.79
83246;BME280;73140;46.754;17.714;2023-12-04T06:50:39;100586.75;;;-2.74;79.59
83246;BME280;73140;46.754;17.714;2023-12-04T06:53:05;100573.28;;;-2.70;78.57
83246;BME280;73140;46.754;17.714;2023-12-04T06:55:32;100569.28;;;-2.55;80.48
83246;BME280;73140;46.754;17.714;2023-12-04T06:57:59;100559.34;;;-2.72;78.96
83246;BME280;73140;46.754;17.714;2023-12-04T07:00:26;100511.94;;;-3.04;78.53
83246;BME280;73140;46.754;17.714;2023-12-04T07:02:52;100560.09;;;-3.06;78.49
83246;BME280;73140;46.754;17.714;2023-12-04T07:05:19;100581.13;;;-2.80;78.83
83246;BME280;73140;46.754;17.714;2023-12-04T07:07:46;100562.41;;;-2.88;78.97
83246;BME280;73140;46.754;17.714;2023-12-04T07:10:13;100606.94;;;-2.70;78.77
83246;BME280;73140;46.754;17.714;2023-12-04T07:12:40;100566.88;;;-2.75;79.33
83246;BME280;73140;46.754;17.714;2023-12-04T07:15:08;100563.47;;;-2.74;79.74
83246;BME280;73140;46.754;17.714;2023-12-04T07:17:35;100524.47;;;-2.99;79.41
83246;BME280;73140;46.754;17.714;2023-12-04T07:20:01;100590.31;;;-2.62;80.46
83246;BME280;73140;46.754;17.714;2023-12-04T07:22:27;100590.97;;;-2.31;80.07
83246;BME280;73140;46.754;17.714;2023-12-04T07:24:53;100548.53;;;-2.66;79.72
83246;BME280;73140;46.754;17.714;2023-12-04T07:27:19;100567.94;;;-2.50;80.20
83246;BME280;73140;46.754;17.714;2023-12-04T07:29:45;100569.22;;;-2.45;80.09
83246;BME280;73140;46.754;17.714;2023-12-04T07:32:13;100609.34;;;-2.28;81.26
83246;BME280;73140;46.754;17.714;2023-12-04T07:34:39;100514.25;;;-2.52;79.95
83246;BME280;73140;46.754;17.714;2023-12-04T07:37:05;100467.19;;;-2.47;80.78
83246;BME280;73140;46.754;17.714;2023-12-04T07:39:31;100569.75;;;-1.46;81.88
83246;BME280;73140;46.754;17.714;2023-12-04T07:41:56;100592.13;;;-1.11;80.19
83246;BME280;73140;46.754;17.714;2023-12-04T07:44:22;100581.94;;;-0.97;79.55
83246;BME280;73140;46.754;17.714;2023-12-04T07:46:48;100561.50;;;-0.92;79.02
83246;BME280;73140;46.754;17.714;2023-12-04T07:49:16;100561.78;;;-0.76;78.19
83246;BME280;73140;46.754;17.714;2023-12-04T07:51:42;100554.00;;;-0.63;78.17
83246;BME280;73140;46.754;17.714;2023-12-04T07:54:08;100505.28;;;-0.67;77.29
83246;BME280;73140;46.754;17.714;2023-12-04T07:56:34;100589.06;;;-0.07;76.48
83246;BME280;73140;46.754;17.714;2023-12-04T07:59:00;100554.38;;;-0.07;76.14
83246;BME280;73140;46.754;17.714;2023-12-04T08:01:26;100533.06;;;-0.15;76.55
83246;BME280;73140;46.754;17.714;2023-12-04T08:03:52;100540.19;;;0.01;75.56
83246;BME280;73140;46.754;17.714;2023-12-04T08:06:20;100539.59;;;0.05;75.18
83246;BME280;73140;46.754;17.714;2023-12-04T08:08:45;100555.03;;;0.15;76.48
83246;BME280;73140;46.754;17.714;2023-12-04T08:11:11;100572.63;;;0.19;75.04
83246;BME280;73140;46.754;17.714;2023-12-04T08:13:39;100570.00;;;0.32;76.43
83246;BME280;73140;46.754;17.714;2023-12-04T08:16:12;100576.31;;;0.36;74.71
83246;BME280;73140;46.754;17.714;2023-12-04T08:18:38;100516.47;;;-0.04;74.18
83246;BME280;73140;46.754;17.714;2023-12-04T08:21:04;100570.22;;;0.35;75.57
83246;BME280;73140;46.754;17.714;2023-12-04T08:23:32;100529.91;;;0.16;74.21
83246;BME280;73140;46.754;17.714;2023-12-04T08:25:58;100542.91;;;0.29;74.48
83246;BME280;73140;46.754;17.714;2023-12-04T08:28:24;100556.00;;;0.43;73.83
83246;BME280;73140;46.754;17.714;2023-12-04T08:30:50;100509.19;;;0.30;73.45
83246;BME280;73140;46.754;17.714;2023-12-04T08:33:16;100570.22;;;0.62;74.65
83246;BME280;73140;46.754;17.714;2023-12-04T08:35:42;100561.63;;;0.63;73.85
83246;BME280;73140;46.754;17.714;2023-12-04T08:38:08;100564.72;;;0.70;72.90
83246;BME280;73140;46.754;17.714;2023-12-04T08:40:35;100466.88;;;0.33;72.79
83246;BME280;73140;46.754;17.714;2023-12-04T08:43:01;100435.78;;;0.08;70.12
83246;BME280;73140;46.754;17.714;2023-12-04T08:45:27;100552.75;;;0.87;70.98
83246;BME280;73140;46.754;17.714;2023-12-04T08:47:53;100497.53;;;0.65;71.45
83246;BME280;73140;46.754;17.714;2023-12-04T08:50:19;100485.97;;;0.46;68.51
83246;BME280;73140;46.754;17.714;2023-12-04T08:52:45;100478.06;;;0.45;69.14
83246;BME280;73140;46.754;17.714;2023-12-04T08:55:11;100559.44;;;0.97;69.97
83246;BME280;73140;46.754;17.714;2023-12-04T08:57:39;100557.31;;;1.04;70.38
83246;BME280;73140;46.754;17.714;2023-12-04T09:00:05;100543.25;;;0.87;69.18
83246;BME280;73140;46.754;17.714;2023-12-04T09:02:33;100489.63;;;0.63;66.77
83246;BME280;73140;46.754;17.714;2023-12-04T09:05:00;100549.09;;;1.11;68.67
83246;BME280;73140;46.754;17.714;2023-12-04T09:07:38;100550.28;;;1.16;67.94
83246;BME280;73140;46.754;17.714;2023-12-04T09:10:07;100546.63;;;1.27;66.80
83246;BME280;73140;46.754;17.714;2023-12-04T09:12:32;100535.31;;;1.41;68.87
83246;BME280;73140;46.754;17.714;2023-12-04T09:15:02;100558.91;;;1.58;66.51
83246;BME280;73140;46.754;17.714;2023-12-04T09:17:28;100449.00;;;0.93;67.44
83246;BME280;73140;46.754;17.714;2023-12-04T09:19:54;100523.16;;;1.70;67.42
83246;BME280;73140;46.754;17.714;2023-12-04T09:22:20;100522.53;;;1.59;66.40
83246;BME280;73140;46.754;17.714;2023-12-04T09:24:46;100513.81;;;1.59;66.04
83246;BME280;73140;46.754;17.714;2023-12-04T09:27:12;100533.41;;;1.67;63.76
83246;BME280;73140;46.754;17.714;2023-12-04T09:29:40;100451.41;;;1.32;64.29
83246;BME280;73140;46.754;17.714;2023-12-04T09:32:08;100507.78;;;1.74;65.70
83246;BME280;73140;46.754;17.714;2023-12-04T09:34:35;100433.78;;;1.28;65.14
83246;BME280;73140;46.754;17.714;2023-12-04T09:37:01;100522.81;;;1.78;63.73
83246;BME280;73140;46.754;17.714;2023-12-04T09:39:28;100445.31;;;1.47;64.80
83246;BME280;73140;46.754;17.714;2023-12-04T09:41:55;100373.94;;;1.30;64.61
83246;BME280;73140;46.754;17.714;2023-12-04T09:44:22;100360.84;;;1.28;62.25
83246;BME280;73140;46.754;17.714;2023-12-04T09:46:50;100408.44;;;1.70;62.72
83246;BME280;73140;46.754;17.714;2023-12-04T09:49:19;100433.88;;;1.74;63.17
83246;BME280;73140;46.754;17.714;2023-12-04T09:51:46;100448.16;;;1.95;62.74
83246;BME280;73140;46.754;17.714;2023-12-04T09:54:12;100475.13;;;2.10;62.04
83246;BME280;73140;46.754;17.714;2023-12-04T09:56:41;100467.09;;;2.22;61.94
83246;BME280;73140;46.754;17.714;2023-12-04T09:59:07;100390.94;;;1.67;60.54
83246;BME280;73140;46.754;17.714;2023-12-04T10:01:35;100461.09;;;2.08;60.85
83246;BME280;73140;46.754;17.714;2023-12-04T10:04:02;100340.31;;;1.64;61.59
83246;BME280;73140;46.754;17.714;2023-12-04T10:06:32;100302.06;;;1.48;61.77
83246;BME280;73140;46.754;17.714;2023-12-04T10:09:00;100310.81;;;1.65;60.08
83246;BME280;73140;46.754;17.714;2023-12-04T10:11:27;100311.56;;;1.62;60.88
83246;BME280;73140;46.754;17.714;2023-12-04T10:13:54;100439.56;;;2.27;60.89
83246;BME280;73140;46.754;17.714;2023-12-04T10:16:33;100445.91;;;2.32;60.53
83246;BME280;73140;46.754;17.714;2023-12-04T10:19:18;100468.50;;;2.31;60.25
83246;BME280;73140;46.754;17.714;2023-12-04T10:21:47;100366.69;;;1.99;61.27
83246;BME280;73140;46.754;17.714;2023-12-04T10:24:28;100404.94;;;2.15;59.37
83246;BME280;73140;46.754;17.714;2023-12-04T10:26:55;100354.97;;;1.92;61.71
83246;BME280;73140;46.754;17.714;2023-12-04T10:29:22;100402.47;;;2.02;59.92
83246;BME280;73140;46.754;17.714;2023-12-04T10:31:49;100348.31;;;1.98;61.42
83246;BME280;73140;46.754;17.714;2023-12-04T10:34:16;100397.44;;;1.90;58.26
83246;BME280;73140;46.754;17.714;2023-12-04T10:36:42;100339.53;;;1.81;59.40
83246;BME280;73140;46.754;17.714;2023-12-04T10:39:13;100400.81;;;2.18;61.49
83246;BME280;73140;46.754;17.714;2023-12-04T10:41:39;100355.88;;;2.08;62.54
83246;BME280;73140;46.754;17.714;2023-12-04T10:44:05;100356.13;;;2.28;60.61
83246;BME280;73140;46.754;17.714;2023-12-04T10:46:32;100410.00;;;2.59;59.22
83246;BME280;73140;46.754;17.714;2023-12-04T10:49:02;100413.59;;;2.61;60.78
83246;BME280;73140;46.754;17.714;2023-12-04T10:51:30;100403.81;;;2.73;61.49
83246;BME280;73140;46.754;17.714;2023-12-04T10:53:56;100277.75;;;2.11;61.76
83246;BME280;73140;46.754;17.714;2023-12-04T10:56:30;100338.44;;;2.55;60.82
83246;BME280;73140;46.754;17.714;2023-12-04T10:59:00;100313.41;;;2.26;61.67
83246;BME280;73140;46.754;17.714;2023-12-04T11:01:30;100396.13;;;2.76;59.79
83246;BME280;73140;46.754;17.714;2023-12-04T11:03:59;100391.16;;;2.80;60.36
83246;BME280;73140;46.754;17.714;2023-12-04T11:06:35;100283.50;;;1.89;58.59
83246;BME280;73140;46.754;17.714;2023-12-04T11:09:05;100282.22;;;2.13;61.16
83246;BME280;73140;46.754;17.714;2023-12-04T11:11:35;100264.94;;;1.83;60.33
83246;BME280;73140;46.754;17.714;2023-12-04T11:14:04;100325.47;;;2.41;62.66
83246;BME280;73140;46.754;17.714;2023-12-04T11:16:34;100274.41;;;2.29;58.44
83246;BME280;73140;46.754;17.714;2023-12-04T11:19:20;100358.25;;;2.68;58.24
83246;BME280;73140;46.754;17.714;2023-12-04T11:21:50;100294.53;;;2.32;59.06
83246;BME280;73140;46.754;17.714;2023-12-04T11:24:18;100196.31;;;2.00;59.48
83246;BME280;73140;46.754;17.714;2023-12-04T11:26:46;100301.72;;;2.68;59.56
83246;BME280;73140;46.754;17.714;2023-12-04T11:29:14;100307.84;;;2.69;59.56
83246;BME280;73140;46.754;17.714;2023-12-04T11:31:41;100268.44;;;2.64;60.11
83246;BME280;73140;46.754;17.714;2023-12-04T11:34:08;100196.63;;;2.38;59.70
83246;BME280;73140;46.754;17.714;2023-12-04T11:36:40;100208.28;;;2.63;58.84
83246;BME280;73140;46.754;17.714;2023-12-04T11:39:09;100336.59;;;3.37;60.11
83246;BME280;73140;46.754;17.714;2023-12-04T11:41:49;100185.69;;;2.63;59.18
83246;BME280;73140;46.754;17.714;2023-12-04T11:44:20;100317.41;;;3.36;58.36
83246;BME280;73140;46.754;17.714;2023-12-04T11:46:58;100251.06;;;3.16;58.81
83246;BME280;73140;46.754;17.714;2023-12-04T11:49:29;100210.91;;;2.97;57.41
83246;BME280;73140;46.754;17.714;2023-12-04T11:51:56;100214.13;;;2.75;58.52
83246;BME280;73140;46.754;17.714;2023-12-04T11:54:23;100323.47;;;3.53;58.18
83246;BME280;73140;46.754;17.714;2023-12-04T11:57:00;100248.81;;;3.06;59.08
83246;BME280;73140;46.754;17.714;2023-12-04T11:59:28;100158.09;;;2.51;58.72
83246;BME280;73140;46.754;17.714;2023-12-04T12:01:55;100192.53;;;2.77;60.75
83246;BME280;73140;46.754;17.714;2023-12-04T12:04:25;100231.50;;;3.08;59.15
83246;BME280;73140;46.754;17.714;2023-12-04T12:06:52;100279.47;;;3.44;59.42
83246;BME280;73140;46.754;17.714;2023-12-04T12:09:19;100151.16;;;2.69;60.79
83246;BME280;73140;46.754;17.714;2023-12-04T12:11:45;100214.16;;;3.10;62.09
83246;BME280;73140;46.754;17.714;2023-12-04T12:14:11;100179.53;;;2.97;62.62
83246;BME280;73140;46.754;17.714;2023-12-04T12:16:39;100203.66;;;3.09;62.54
83246;BME280;73140;46.754;17.714;2023-12-04T12:19:05;100175.50;;;2.85;61.58
83246;BME280;73140;46.754;17.714;2023-12-04T12:21:31;100194.94;;;3.08;62.25
83246;BME280;73140;46.754;17.714;2023-12-04T12:23:57;100244.44;;;3.05;64.01
83246;BME280;73140;46.754;17.714;2023-12-04T12:26:24;100155.78;;;2.57;61.21
83246;BME280;73140;46.754;17.714;2023-12-04T12:28:50;100179.50;;;2.61;61.61
83246;BME280;73140;46.754;17.714;2023-12-04T12:31:17;100246.44;;;2.93;63.01
83246;BME280;73140;46.754;17.714;2023-12-04T12:33:44;100241.75;;;2.70;63.64
83246;BME280;73140;46.754;17.714;2023-12-04T12:36:11;100230.13;;;2.81;63.75
83246;BME280;73140;46.754;17.714;2023-12-04T12:38:37;100201.59;;;2.68;63.13
83246;BME280;73140;46.754;17.714;2023-12-04T12:41:06;100220.91;;;2.71;62.19